createdAt,value
2018-05-12T00:00:14.800Z,989.76
2018-05-12T00:01:24.815Z,989.78
2018-05-12T00:02:34.291Z,989.78
2018-05-12T00:03:44.030Z,989.78
2018-05-12T00:04:53.770Z,989.84
2018-05-12T00:06:03.789Z,989.85
2018-05-12T00:07:13.542Z,989.86
2018-05-12T00:08:23.555Z,989.84
2018-05-12T00:09:33.572Z,989.86
2018-05-12T00:10:43.049Z,989.86
2018-05-12T00:11:52.806Z,989.86
2018-05-12T00:13:02.560Z,989.89
2018-05-12T00:14:12.567Z,989.88
2018-05-12T00:15:22.585Z,989.89
2018-05-12T00:16:32.604Z,989.9
2018-05-12T00:17:42.345Z,989.93
2018-05-12T00:18:52.373Z,989.88
2018-05-12T00:20:02.117Z,989.86
2018-05-12T00:21:11.861Z,989.89
2018-05-12T00:22:21.875Z,989.89
2018-05-12T00:23:31.349Z,989.86
2018-05-12T00:24:41.364Z,989.86
2018-05-12T00:25:51.390Z,989.86
2018-05-12T00:27:01.401Z,989.83
2018-05-12T00:28:11.418Z,989.82
2018-05-12T00:29:20.633Z,989.79
2018-05-12T00:30:30.375Z,989.79
2018-05-12T00:31:39.585Z,989.82
2018-05-12T00:32:49.602Z,989.81
2018-05-12T00:33:59.617Z,989.82
2018-05-12T00:35:09.631Z,989.78
2018-05-12T00:36:19.370Z,989.76
2018-05-12T00:37:29.121Z,989.78
2018-05-12T00:38:38.951Z,989.77
2018-05-12T00:39:48.961Z,989.76
2018-05-12T00:40:58.970Z,989.75
2018-05-12T00:42:08.979Z,989.75
2018-05-12T00:43:18.196Z,989.81
2018-05-12T00:44:27.424Z,989.78
2018-05-12T00:45:37.430Z,989.8
2018-05-12T00:46:47.440Z,989.79
2018-05-12T00:47:57.450Z,989.83
2018-05-12T00:49:06.926Z,989.84
2018-05-12T00:50:16.946Z,989.81
2018-05-12T00:51:26.952Z,989.79
2018-05-12T00:52:36.961Z,989.81
2018-05-12T00:53:46.712Z,989.79
2018-05-12T00:54:56.815Z,989.78
2018-05-12T00:56:06.555Z,989.78
2018-05-12T00:57:16.030Z,989.78
2018-05-12T00:58:26.045Z,989.82
2018-05-12T00:59:35.792Z,989.81
2018-05-12T01:00:45.533Z,989.81
2018-05-12T01:01:55.271Z,989.81
2018-05-12T01:03:05.017Z,989.81
2018-05-12T01:04:14.772Z,989.82
2018-05-12T01:05:24.797Z,989.84
2018-05-12T01:06:34.814Z,989.83
2018-05-12T01:07:44.643Z,989.83
2018-05-12T01:08:54.121Z,989.86
2018-05-12T01:10:04.137Z,989.85
2018-05-12T01:11:14.143Z,989.9
2018-05-12T01:12:24.169Z,989.93
2018-05-12T01:13:34.193Z,989.89
2018-05-12T01:14:44.448Z,989.89
2018-05-12T01:15:54.512Z,989.93
2018-05-12T01:17:04.254Z,989.95
2018-05-12T01:18:14.273Z,989.91
2018-05-12T01:19:24.016Z,989.92
2018-05-12T01:20:33.760Z,989.98
2018-05-12T01:21:43.502Z,989.96
2018-05-12T01:22:53.514Z,989.98
2018-05-12T01:24:03.535Z,989.95
2018-05-12T01:25:13.564Z,989.96
2018-05-12T01:26:23.308Z,989.95
2018-05-12T01:27:33.417Z,989.97
2018-05-12T01:28:42.625Z,989.91
2018-05-12T01:29:52.635Z,989.96
2018-05-12T01:31:02.648Z,989.93
2018-05-12T01:32:12.393Z,989.96
2018-05-12T01:33:22.140Z,989.97
2018-05-12T01:34:31.885Z,989.98
2018-05-12T01:35:41.905Z,989.98
2018-05-12T01:36:51.989Z,989.93
2018-05-12T01:38:01.805Z,989.96
2018-05-12T01:39:11.549Z,989.97
2018-05-12T01:40:21.566Z,989.96
2018-05-12T01:41:31.579Z,989.94
2018-05-12T01:42:41.595Z,990.01
2018-05-12T01:43:51.339Z,990.01
2018-05-12T01:45:01.347Z,989.99
2018-05-12T01:46:11.098Z,990.01
2018-05-12T01:47:21.113Z,990.06
2018-05-12T01:48:31.132Z,990
2018-05-12T01:49:40.873Z,990.01
2018-05-12T01:50:50.883Z,989.99
2018-05-12T01:52:00.892Z,989.97
2018-05-12T01:53:10.105Z,989.99
2018-05-12T01:54:20.120Z,990.01
2018-05-12T01:55:30.134Z,989.96
2018-05-12T01:56:40.147Z,990
2018-05-12T01:57:50.160Z,989.97
2018-05-12T01:59:00.178Z,989.96
2018-05-12T02:00:09.655Z,989.98
2018-05-12T02:01:19.398Z,989.96
2018-05-12T02:02:29.295Z,989.98
2018-05-12T02:03:39.302Z,989.97
2018-05-12T02:04:49.311Z,990
2018-05-12T02:05:59.322Z,990.01
2018-05-12T02:07:09.068Z,989.97
2018-05-12T02:08:19.073Z,989.98
2018-05-12T02:09:28.818Z,989.99
2018-05-12T02:10:38.843Z,989.93
2018-05-12T02:11:48.584Z,989.93
2018-05-12T02:12:58.593Z,989.88
2018-05-12T02:14:08.332Z,989.9
2018-05-12T02:15:18.084Z,989.88
2018-05-12T02:16:27.829Z,989.85
2018-05-12T02:17:37.309Z,989.9
2018-05-12T02:18:47.051Z,989.91
2018-05-12T02:19:57.061Z,989.89
2018-05-12T02:21:07.136Z,989.89
2018-05-12T02:22:16.893Z,989.93
2018-05-12T02:23:26.631Z,989.87
2018-05-12T02:24:36.651Z,989.87
2018-05-12T02:25:46.126Z,989.87
2018-05-12T02:26:56.139Z,989.84
2018-05-12T02:28:06.153Z,989.85
2018-05-12T02:29:15.630Z,989.89
2018-05-12T02:30:25.401Z,989.9
2018-05-12T02:31:35.735Z,989.86
2018-05-12T02:32:45.757Z,989.87
2018-05-12T02:33:55.778Z,989.83
2018-05-12T02:35:05.627Z,989.82
2018-05-12T02:36:15.651Z,989.82
2018-05-12T02:37:25.179Z,989.85
2018-05-12T02:38:35.208Z,989.81
2018-05-12T02:39:44.949Z,989.82
2018-05-12T02:40:54.433Z,989.87
2018-05-12T02:42:04.180Z,989.85
2018-05-12T02:43:13.664Z,989.88
2018-05-12T02:44:23.682Z,989.9
2018-05-12T02:45:32.889Z,989.95
2018-05-12T02:46:42.649Z,989.9
2018-05-12T02:47:52.135Z,989.91
2018-05-12T02:49:02.151Z,989.91
2018-05-12T02:50:11.362Z,989.89
2018-05-12T02:51:21.111Z,989.89
2018-05-12T02:52:30.599Z,989.91
2018-05-12T02:53:40.612Z,989.86
2018-05-12T02:54:50.626Z,989.9
2018-05-12T02:56:00.380Z,989.89
2018-05-12T02:57:10.396Z,989.92
2018-05-12T02:58:20.151Z,989.88
2018-05-12T02:59:30.161Z,989.9
2018-05-12T03:03:25.058Z,989.91
2018-05-12T03:04:34.808Z,989.88
2018-05-12T03:05:44.835Z,989.86
2018-05-12T03:06:54.588Z,989.87
2018-05-12T03:08:04.143Z,989.82
2018-05-12T03:09:13.993Z,989.8
2018-05-12T03:10:23.743Z,989.83
2018-05-12T03:11:33.771Z,989.85
2018-05-12T03:12:43.514Z,989.85
2018-05-12T03:13:53.272Z,989.85
2018-05-12T03:15:03.289Z,989.85
2018-05-12T03:16:13.304Z,989.89
2018-05-12T03:17:23.050Z,989.85
2018-05-12T03:18:32.796Z,989.86
2018-05-12T03:19:42.796Z,989.89
2018-05-12T03:20:52.571Z,989.94
2018-05-12T03:22:02.310Z,989.99
2018-05-12T03:23:12.057Z,990.03
2018-05-12T03:24:21.793Z,990.05
2018-05-12T03:25:31.890Z,990.06
2018-05-12T03:26:41.894Z,990.04
2018-05-12T03:27:51.652Z,989.99
2018-05-12T03:29:01.396Z,989.99
2018-05-12T03:30:11.426Z,989.99
2018-05-12T03:31:21.438Z,990.01
2018-05-12T03:32:31.456Z,990
2018-05-12T03:33:41.206Z,990.03
2018-05-12T03:34:50.701Z,990.06
2018-05-12T03:35:59.916Z,990.08
2018-05-12T03:37:09.395Z,990.05
2018-05-12T03:38:19.507Z,990.02
2018-05-12T03:39:29.525Z,990.02
2018-05-12T03:40:39.266Z,990.02
2018-05-12T03:41:49.004Z,990.07
2018-05-12T03:42:58.748Z,990.03
2018-05-12T03:44:07.954Z,990.06
2018-05-12T03:45:17.968Z,990.1
2018-05-12T03:46:27.988Z,990.06
2018-05-12T03:47:37.732Z,990.05
2018-05-12T03:48:47.742Z,990.02
2018-05-12T03:49:57.749Z,989.97
2018-05-12T03:51:07.224Z,989.96
2018-05-12T03:52:17.237Z,989.94
2018-05-12T03:53:27.262Z,989.96
2018-05-12T03:54:37.007Z,989.93
2018-05-12T03:55:46.488Z,989.98
2018-05-12T03:56:56.229Z,989.94
2018-05-12T03:58:05.970Z,989.96
2018-05-12T03:59:15.711Z,989.98
2018-05-12T04:00:25.191Z,989.96
2018-05-12T04:01:35.210Z,989.97
2018-05-12T04:02:44.418Z,989.99
2018-05-12T04:03:54.425Z,989.95
2018-05-12T04:05:04.170Z,990.01
2018-05-12T04:06:13.660Z,989.97
2018-05-12T04:07:23.670Z,989.98
2018-05-12T04:08:33.230Z,989.97
2018-05-12T04:09:42.827Z,989.98
2018-05-12T04:10:52.843Z,989.99
2018-05-12T04:12:02.320Z,990
2018-05-12T04:13:12.167Z,989.98
2018-05-12T04:14:22.180Z,989.98
2018-05-12T04:15:31.660Z,989.97
2018-05-12T04:16:41.140Z,989.99
2018-05-12T04:17:50.893Z,989.95
2018-05-12T04:19:00.900Z,990.01
2018-05-12T04:20:10.911Z,989.98
2018-05-12T04:21:20.656Z,989.93
2018-05-12T04:22:30.663Z,989.94
2018-05-12T04:23:40.406Z,989.94
2018-05-12T04:24:50.420Z,989.91
2018-05-12T04:26:00.437Z,989.92
2018-05-12T04:27:10.464Z,989.88
2018-05-12T04:28:20.481Z,989.85
2018-05-12T04:29:30.490Z,989.87
2018-05-12T04:30:40.499Z,989.83
2018-05-12T04:31:50.240Z,989.8
2018-05-12T04:32:59.984Z,989.8
2018-05-12T04:34:09.990Z,989.77
2018-05-12T04:35:19.738Z,989.78
2018-05-12T04:36:29.757Z,989.72
2018-05-12T04:37:39.764Z,989.69
2018-05-12T04:38:49.771Z,989.68
2018-05-12T04:39:59.514Z,989.73
2018-05-12T04:41:08.730Z,989.72
2018-05-12T04:42:18.473Z,989.74
2018-05-12T04:43:28.490Z,989.77
2018-05-12T04:44:38.503Z,989.74
2018-05-12T04:45:48.516Z,989.75
2018-05-12T04:46:58.519Z,989.74
2018-05-12T04:48:08.266Z,989.71
2018-05-12T04:49:18.292Z,989.73
2018-05-12T04:50:28.037Z,989.67
2018-05-12T04:51:37.244Z,989.68
2018-05-12T04:52:46.724Z,989.68
2018-05-12T04:53:56.469Z,989.73
2018-05-12T04:55:06.579Z,989.77
2018-05-12T04:56:16.341Z,989.82
2018-05-12T04:57:25.817Z,989.82
2018-05-12T04:58:35.842Z,989.8
2018-05-12T04:59:45.857Z,989.85
2018-05-12T05:00:55.603Z,989.84
2018-05-12T05:02:05.353Z,989.89
2018-05-12T05:03:15.096Z,989.91
2018-05-12T05:04:24.581Z,989.91
2018-05-12T05:05:34.588Z,989.92
2018-05-12T05:06:44.336Z,989.91
2018-05-12T05:07:54.079Z,989.88
2018-05-12T05:09:03.818Z,989.93
2018-05-12T05:10:13.560Z,989.92
2018-05-12T05:11:23.572Z,989.94
2018-05-12T05:12:33.588Z,989.94
2018-05-12T05:13:43.601Z,989.94
2018-05-12T05:14:53.616Z,989.98
2018-05-12T05:16:03.628Z,989.96
2018-05-12T05:17:13.376Z,990
2018-05-12T05:18:23.390Z,989.99
2018-05-12T05:19:33.393Z,989.95
2018-05-12T05:20:43.137Z,989.98
2018-05-12T05:21:52.883Z,989.96
2018-05-12T05:23:02.908Z,989.94
2018-05-12T05:24:12.660Z,989.95
2018-05-12T05:25:21.867Z,989.93
2018-05-12T05:26:31.877Z,989.94
2018-05-12T05:27:41.893Z,989.94
2018-05-12T05:28:51.371Z,989.93
2018-05-12T05:30:01.388Z,989.93
2018-05-12T05:31:11.403Z,989.93
2018-05-12T05:32:21.413Z,989.97
2018-05-12T05:33:30.886Z,989.94
2018-05-12T05:34:40.643Z,989.96
2018-05-12T05:35:50.667Z,990
2018-05-12T05:37:00.416Z,990.03
2018-05-12T05:38:10.167Z,990
2018-05-12T05:39:19.914Z,989.98
2018-05-12T05:40:29.397Z,989.98
2018-05-12T05:41:39.191Z,990.02
2018-05-12T05:42:49.242Z,990.02
2018-05-12T05:43:59.252Z,990.02
2018-05-12T05:45:08.996Z,990.05
2018-05-12T05:46:19.008Z,990.04
2018-05-12T05:47:28.754Z,990.05
2018-05-12T05:48:38.771Z,990.07
2018-05-12T05:49:48.779Z,990.07
2018-05-12T05:50:58.533Z,990.08
2018-05-12T05:52:08.552Z,990.1
2018-05-12T05:53:17.761Z,990.04
2018-05-12T05:54:27.512Z,990.04
2018-05-12T05:55:37.256Z,990.02
2018-05-12T05:56:47.274Z,990.02
2018-05-12T05:57:57.027Z,990.02
2018-05-12T05:59:07.047Z,990.01
2018-05-12T06:00:16.521Z,990
2018-05-12T06:01:26.271Z,989.99
2018-05-12T06:02:36.281Z,989.98
2018-05-12T06:03:45.761Z,989.97
2018-05-12T06:04:55.592Z,990.02
2018-05-12T06:06:05.070Z,990.06
2018-05-12T06:07:14.668Z,990.07
2018-05-12T06:08:24.800Z,990.14
2018-05-12T06:09:34.816Z,990.15
2018-05-12T06:10:44.567Z,990.15
2018-05-12T06:11:54.577Z,990.13
2018-05-12T06:13:04.323Z,990.11
2018-05-12T06:14:14.335Z,990.12
2018-05-12T06:15:24.085Z,990.11
2018-05-12T06:16:33.831Z,990.11
2018-05-12T06:17:43.306Z,990.09
2018-05-12T06:18:53.313Z,990.06
2018-05-12T06:20:02.793Z,990.02
2018-05-12T06:21:12.649Z,990.02
2018-05-12T06:22:22.393Z,990.06
2018-05-12T06:23:32.413Z,990.04
2018-05-12T06:24:42.231Z,990.05
2018-05-12T06:25:52.245Z,990.08
2018-05-12T06:27:02.024Z,990.16
2018-05-12T06:28:12.037Z,990.15
2018-05-12T06:29:21.512Z,990.13
2018-05-12T06:30:31.532Z,990.13
2018-05-12T06:31:41.273Z,990.11
2018-05-12T06:32:51.292Z,990.11
2018-05-12T06:34:01.304Z,990.1
2018-05-12T06:35:10.778Z,990.11
2018-05-12T06:36:20.798Z,990.1
2018-05-12T06:37:30.808Z,990.12
2018-05-12T06:38:40.821Z,990.16
2018-05-12T06:39:50.835Z,990.13
2018-05-12T06:41:00.852Z,990.16
2018-05-12T06:42:10.595Z,990.1
2018-05-12T06:43:20.076Z,990.08
2018-05-12T06:44:30.103Z,990.11
2018-05-12T06:45:40.116Z,990.07
2018-05-12T06:46:50.150Z,990.1
2018-05-12T06:47:59.897Z,990.12
2018-05-12T06:49:09.909Z,990.1
2018-05-12T06:50:19.395Z,990.13
2018-05-12T06:51:29.133Z,990.1
2018-05-12T06:52:39.148Z,990.09
2018-05-12T06:53:49.458Z,990.12
2018-05-12T06:54:59.467Z,990.17
2018-05-12T06:56:09.213Z,990.2
2018-05-12T06:57:19.225Z,990.27
2018-05-12T06:58:28.700Z,990.28
2018-05-12T06:59:38.172Z,990.29
2018-05-12T07:00:47.914Z,990.27
2018-05-12T07:01:57.931Z,990.32
2018-05-12T07:03:07.951Z,990.26
2018-05-12T07:04:17.970Z,990.23
2018-05-12T07:05:27.984Z,990.29
2018-05-12T07:06:37.995Z,990.28
2018-05-12T07:07:48.010Z,990.25
2018-05-12T07:08:58.023Z,990.29
2018-05-12T07:10:07.769Z,990.27
2018-05-12T07:11:17.788Z,990.27
2018-05-12T07:12:27.622Z,990.22
2018-05-12T07:13:37.366Z,990.29
2018-05-12T07:14:47.380Z,990.32
2018-05-12T07:15:57.397Z,990.3
2018-05-12T07:17:07.145Z,990.29
2018-05-12T07:18:17.291Z,990.27
2018-05-12T07:19:27.191Z,990.24
2018-05-12T07:20:36.764Z,990.21
2018-05-12T07:21:46.519Z,990.21
2018-05-12T07:22:56.264Z,990.18
2018-05-12T07:24:06.008Z,990.18
2018-05-12T07:25:16.015Z,990.16
2018-05-12T07:26:26.033Z,990.18
2018-05-12T07:27:36.043Z,990.2
2018-05-12T07:28:45.786Z,990.21
2018-05-12T07:29:55.805Z,990.19
2018-05-12T07:31:05.549Z,990.24
2018-05-12T07:32:15.561Z,990.2
2018-05-12T07:33:25.571Z,990.21
2018-05-12T07:34:35.584Z,990.24
2018-05-12T07:35:45.601Z,990.21
2018-05-12T07:36:55.707Z,990.25
2018-05-12T07:38:05.727Z,990.28
2018-05-12T07:39:15.737Z,990.26
2018-05-12T07:40:25.750Z,990.28
2018-05-12T07:41:35.495Z,990.26
2018-05-12T07:42:45.248Z,990.24
2018-05-12T07:43:55.008Z,990.3
2018-05-12T07:45:04.790Z,990.33
2018-05-12T07:46:14.523Z,990.28
2018-05-12T07:47:24.265Z,990.26
2018-05-12T07:48:34.280Z,990.29
2018-05-12T07:49:43.491Z,990.25
2018-05-12T07:50:52.965Z,990.27
2018-05-12T07:52:02.977Z,990.31
2018-05-12T07:53:12.727Z,990.35
2018-05-12T07:54:22.737Z,990.29
2018-05-12T07:55:32.756Z,990.31
2018-05-12T07:56:42.775Z,990.28
2018-05-12T07:57:52.833Z,990.31
2018-05-12T07:59:02.315Z,990.3
2018-05-12T08:00:11.795Z,990.34
2018-05-12T08:01:21.350Z,990.37
2018-05-12T08:02:31.373Z,990.39
2018-05-12T08:03:41.115Z,990.42
2018-05-12T08:04:50.858Z,990.45
2018-05-12T08:06:00.386Z,990.43
2018-05-12T08:07:10.129Z,990.45
2018-05-12T08:08:20.142Z,990.42
2018-05-12T08:09:30.154Z,990.42
2018-05-12T08:10:40.176Z,990.44
2018-05-12T08:11:49.969Z,990.41
2018-05-12T08:12:59.984Z,990.43
2018-05-12T08:14:10.005Z,990.43
2018-05-12T08:15:19.753Z,990.48
2018-05-12T08:16:29.770Z,990.5
2018-05-12T08:17:39.869Z,990.5
2018-05-12T08:18:49.346Z,990.54
2018-05-12T08:19:59.359Z,990.53
2018-05-12T08:21:09.466Z,990.53
2018-05-12T08:22:19.480Z,990.49
2018-05-12T08:23:29.493Z,990.51
2018-05-12T08:24:39.500Z,990.54
2018-05-12T08:25:49.515Z,990.53
2018-05-12T08:26:59.624Z,990.49
2018-05-12T08:28:09.375Z,990.5
2018-05-12T08:29:19.388Z,990.46
2018-05-12T08:30:29.135Z,990.45
2018-05-12T08:31:38.899Z,990.46
2018-05-12T08:32:48.356Z,990.41
2018-05-12T08:33:58.110Z,990.38
2018-05-12T08:35:07.853Z,990.38
2018-05-12T08:36:17.872Z,990.41
2018-05-12T08:37:27.898Z,990.42
2018-05-12T08:38:37.646Z,990.46
2018-05-12T08:39:47.126Z,990.47
2018-05-12T08:40:57.153Z,990.47
2018-05-12T08:42:06.904Z,990.41
2018-05-12T08:43:16.652Z,990.43
2018-05-12T08:44:26.404Z,990.43
2018-05-12T08:45:36.161Z,990.44
2018-05-12T08:46:46.286Z,990.47
2018-05-12T08:47:56.296Z,990.47
2018-05-12T08:49:06.045Z,990.43
2018-05-12T08:50:16.065Z,990.47
2018-05-12T08:51:25.822Z,990.44
2018-05-12T08:52:35.860Z,990.47
2018-05-12T08:53:45.872Z,990.48
2018-05-12T08:54:55.900Z,990.49
2018-05-12T08:56:05.918Z,990.47
2018-05-12T08:57:15.676Z,990.46
2018-05-12T08:58:25.420Z,990.45
2018-05-12T08:59:35.441Z,990.43
2018-05-12T09:00:45.470Z,990.44
2018-05-12T09:01:55.493Z,990.45
2018-05-12T09:03:05.509Z,990.46
2018-05-12T09:04:15.519Z,990.41
2018-05-12T09:05:25.262Z,990.44
2018-05-12T09:06:35.012Z,990.45
2018-05-12T09:07:44.490Z,990.42
2018-05-12T09:08:54.243Z,990.41
2018-05-12T09:10:03.991Z,990.42
2018-05-12T09:11:13.740Z,990.43
2018-05-12T09:12:23.484Z,990.47
2018-05-12T09:13:32.964Z,990.44
2018-05-12T09:14:42.713Z,990.46
2018-05-12T09:15:52.198Z,990.46
2018-05-12T09:17:02.232Z,990.48
2018-05-12T09:18:11.445Z,990.45
2018-05-12T09:19:21.240Z,990.51
2018-05-12T09:20:31.175Z,990.5
2018-05-12T09:21:41.193Z,990.54
2018-05-12T09:22:50.947Z,990.52
2018-05-12T09:24:00.439Z,990.51
2018-05-12T09:25:10.453Z,990.48
2018-05-12T09:26:20.481Z,990.45
2018-05-12T09:27:30.507Z,990.44
2018-05-12T09:28:40.532Z,990.47
2018-05-12T09:29:50.010Z,990.44
2018-05-12T09:30:59.763Z,990.46
2018-05-12T09:32:09.779Z,990.47
2018-05-12T09:33:19.795Z,990.48
2018-05-12T09:34:29.829Z,990.53
2018-05-12T09:35:39.850Z,990.45
2018-05-12T09:36:49.860Z,990.46
2018-05-12T09:37:59.611Z,990.45
2018-05-12T09:39:09.357Z,990.43
2018-05-12T09:40:19.377Z,990.38
2018-05-12T09:41:29.390Z,990.44
2018-05-12T09:42:39.410Z,990.45
2018-05-12T09:43:48.617Z,990.44
2018-05-12T09:44:58.977Z,990.49
2018-05-12T09:46:08.744Z,990.49
2018-05-12T09:47:18.773Z,990.51
2018-05-12T09:48:28.525Z,990.5
2018-05-12T09:49:38.291Z,990.52
2018-05-12T09:50:47.783Z,990.55
2018-05-12T09:51:57.800Z,990.59
2018-05-12T09:53:07.014Z,990.52
2018-05-12T09:54:16.495Z,990.55
2018-05-12T09:55:26.248Z,990.49
2018-05-12T09:56:36.262Z,990.53
2018-05-12T09:57:46.017Z,990.53
2018-05-12T09:58:55.773Z,990.49
2018-05-12T10:00:05.268Z,990.52
2018-05-12T10:01:15.296Z,990.53
2018-05-12T10:02:24.780Z,990.56
2018-05-12T10:03:34.258Z,990.53
2018-05-12T10:04:44.018Z,990.53
2018-05-12T10:05:53.769Z,990.55
2018-05-12T10:07:03.249Z,990.52
2018-05-12T10:08:13.100Z,990.49
2018-05-12T10:09:22.847Z,990.5
2018-05-12T10:10:32.872Z,990.49
2018-05-12T10:11:42.352Z,990.5
2018-05-12T10:12:52.139Z,990.5
2018-05-12T10:14:02.471Z,990.46
2018-05-12T10:15:12.505Z,990.43
2018-05-12T10:16:22.333Z,990.44
2018-05-12T10:17:32.082Z,990.42
2018-05-12T10:18:41.843Z,990.44
2018-05-12T10:19:51.060Z,990.41
2018-05-12T10:21:00.613Z,990.45
2018-05-12T10:22:11.185Z,990.42
2018-05-12T10:23:21.037Z,990.43
2018-05-12T10:24:31.057Z,990.5
2018-05-12T10:25:41.125Z,990.49
2018-05-12T10:26:50.612Z,990.45
2018-05-12T10:28:00.625Z,990.49
2018-05-12T10:29:10.638Z,990.52
2018-05-12T10:30:20.387Z,990.53
2018-05-12T10:31:30.489Z,990.51
2018-05-12T10:32:40.509Z,990.45
2018-05-12T10:33:49.993Z,990.42
2018-05-12T10:34:59.744Z,990.43
2018-05-12T10:36:09.223Z,990.44
2018-05-12T10:37:19.248Z,990.44
2018-05-12T10:38:29.017Z,990.42
2018-05-12T10:39:39.035Z,990.45
2018-05-12T10:40:49.048Z,990.43
2018-05-12T10:41:58.530Z,990.42
2018-05-12T10:43:08.014Z,990.46
2018-05-12T10:44:17.767Z,990.4
2018-05-12T10:45:27.877Z,990.44
2018-05-12T10:46:37.381Z,990.46
2018-05-12T10:47:47.403Z,990.47
2018-05-12T10:48:57.154Z,990.47
2018-05-12T10:50:06.904Z,990.45
2018-05-12T10:51:16.922Z,990.41
2018-05-12T10:52:27.029Z,990.5
2018-05-12T10:53:37.055Z,990.51
2018-05-12T10:54:47.077Z,990.46
2018-05-12T10:55:57.093Z,990.51
2018-05-12T10:57:07.129Z,990.47
2018-05-12T10:58:17.152Z,990.48
2018-05-12T10:59:27.174Z,990.49
2018-05-12T11:00:37.195Z,990.48
2018-05-12T11:01:46.681Z,990.47
2018-05-12T11:02:56.832Z,990.45
2018-05-12T11:04:06.070Z,990.41
2018-05-12T11:05:15.559Z,990.45
2018-05-12T11:06:25.582Z,990.48
2018-05-12T11:07:35.605Z,990.43
2018-05-12T11:08:45.625Z,990.48
2018-05-12T11:09:55.380Z,990.48
2018-05-12T11:11:05.131Z,990.49
2018-05-12T11:12:14.898Z,990.46
2018-05-12T11:13:24.655Z,990.46
2018-05-12T11:14:34.688Z,990.49
2018-05-12T11:15:44.737Z,990.47
2018-05-12T11:16:55.271Z,990.45
2018-05-12T11:18:05.295Z,990.48
2018-05-12T11:19:15.383Z,990.45
2018-05-12T11:20:25.412Z,990.45
2018-05-12T11:21:35.504Z,990.49
2018-05-12T11:22:45.405Z,990.48
2018-05-12T11:23:55.530Z,990.49
2018-05-12T11:25:05.280Z,990.52
2018-05-12T11:26:15.033Z,990.52
2018-05-12T11:27:24.784Z,990.53
2018-05-12T11:28:34.536Z,990.51
2018-05-12T11:29:44.019Z,990.51
2018-05-12T11:30:53.505Z,990.54
2018-05-12T11:32:03.522Z,990.52
2018-05-12T11:33:12.877Z,990.5
2018-05-12T11:34:22.624Z,990.54
2018-05-12T11:35:32.377Z,990.53
2018-05-12T11:36:42.471Z,990.59
2018-05-12T11:37:51.952Z,990.59
2018-05-12T11:39:01.972Z,990.56
2018-05-12T11:40:11.727Z,990.62
2018-05-12T11:41:21.218Z,990.51
2018-05-12T11:42:31.246Z,990.51
2018-05-12T11:43:41.284Z,990.47
2018-05-12T11:44:51.033Z,990.5
2018-05-12T11:46:00.784Z,990.49
2018-05-12T11:47:10.538Z,990.47
2018-05-12T11:48:19.761Z,990.45
2018-05-12T11:49:29.789Z,990.44
2018-05-12T11:50:39.822Z,990.44
2018-05-12T11:51:49.837Z,990.5
2018-05-12T11:52:59.861Z,990.5
2018-05-12T11:54:09.678Z,990.5
2018-05-12T11:55:19.822Z,990.43
2018-05-12T11:56:29.577Z,990.49
2018-05-12T11:57:39.604Z,990.47
2018-05-12T11:58:49.092Z,990.48
2018-05-12T11:59:59.118Z,990.5
2018-05-12T12:01:08.866Z,990.45
2018-05-12T12:02:18.617Z,990.5
2018-05-12T12:03:28.556Z,990.51
2018-05-12T12:04:38.380Z,990.44
2018-05-12T12:05:47.871Z,990.5
2018-05-12T12:06:57.888Z,990.48
2018-05-12T12:08:07.907Z,990.49
2018-05-12T12:09:17.703Z,990.48
2018-05-12T12:10:27.195Z,990.45
2018-05-12T12:11:36.953Z,990.49
2018-05-12T12:12:46.979Z,990.55
2018-05-12T12:13:56.998Z,990.58
2018-05-12T12:15:06.216Z,990.59
2018-05-12T12:16:16.021Z,990.57
2018-05-12T12:17:25.241Z,990.49
2018-05-12T12:18:35.257Z,990.54
2018-05-12T12:19:45.282Z,990.49
2018-05-12T12:20:55.305Z,990.54
2018-05-12T12:22:05.332Z,990.53
2018-05-12T12:23:14.831Z,990.58
2018-05-12T12:24:24.317Z,990.62
2018-05-12T12:25:33.804Z,990.58
2018-05-12T12:26:43.852Z,990.63
2018-05-12T12:27:53.070Z,990.72
2018-05-12T12:29:03.094Z,990.6
2018-05-12T12:30:13.126Z,990.57
2018-05-12T12:31:23.150Z,990.42
2018-05-12T12:32:33.182Z,990.29
2018-05-12T12:33:42.668Z,990.35
2018-05-12T12:34:52.161Z,990.4
2018-05-12T12:36:01.920Z,990.39
2018-05-12T12:37:11.714Z,990.38
2018-05-12T12:38:20.680Z,990.39
2018-05-12T12:39:30.708Z,990.63
2018-05-12T12:40:40.732Z,990.44
2018-05-12T12:41:50.760Z,990.45
2018-05-12T12:43:00.247Z,990.39
2018-05-12T12:44:10.001Z,990.38
2018-05-12T12:45:19.218Z,990.47
2018-05-12T12:46:29.241Z,990.5
2018-05-12T12:47:39.262Z,990.51
2018-05-12T12:48:49.302Z,990.51
2018-05-12T12:49:59.325Z,990.58
2018-05-12T12:51:08.825Z,990.53
2018-05-12T12:52:18.584Z,990.53
2018-05-12T12:53:28.606Z,990.55
2018-05-12T12:54:38.091Z,990.56
2018-05-12T12:55:48.109Z,990.53
2018-05-12T12:56:57.868Z,990.53
2018-05-12T12:58:07.893Z,990.53
2018-05-12T12:59:17.488Z,990.5
2018-05-12T13:00:27.506Z,990.47
2018-05-12T13:01:37.525Z,990.52
2018-05-12T13:02:47.554Z,990.52
2018-05-12T13:03:56.776Z,990.54
2018-05-12T13:05:06.534Z,990.51
2018-05-12T13:06:16.286Z,990.52
2018-05-12T13:07:26.315Z,990.49
2018-05-12T13:08:36.337Z,990.51
2018-05-12T13:09:46.366Z,990.46
2018-05-12T13:10:56.391Z,990.47
2018-05-12T13:12:06.145Z,990.45
2018-05-12T13:13:15.633Z,990.47
2018-05-12T13:14:25.674Z,990.48
2018-05-12T13:15:35.478Z,990.46
2018-05-12T13:16:45.498Z,990.48
2018-05-12T13:17:55.533Z,990.47
2018-05-12T13:19:05.552Z,990.52
2018-05-12T13:20:15.421Z,990.61
2018-05-12T13:21:25.442Z,990.52
2018-05-12T13:22:35.204Z,990.52
2018-05-12T13:23:44.687Z,990.54
2018-05-12T13:24:54.702Z,990.54
2018-05-12T13:26:04.192Z,990.51
2018-05-12T13:27:13.948Z,990.52
2018-05-12T13:28:23.967Z,990.47
2018-05-12T13:29:33.991Z,990.45
2018-05-12T13:30:44.017Z,990.42
2018-05-12T13:31:53.776Z,990.4
2018-05-12T13:33:03.535Z,990.36
2018-05-12T13:34:13.298Z,990.37
2018-05-12T13:35:23.057Z,990.38
2018-05-12T13:36:32.541Z,990.41
2018-05-12T13:37:42.558Z,990.41
2018-05-12T13:38:52.575Z,990.37
2018-05-12T13:40:02.326Z,990.42
2018-05-12T13:41:11.807Z,990.34
2018-05-12T13:42:21.589Z,990.42
2018-05-12T13:43:31.609Z,990.41
2018-05-12T13:44:41.639Z,990.4
2018-05-12T13:45:51.454Z,990.41
2018-05-12T13:47:01.208Z,990.38
2018-05-12T13:48:10.961Z,990.44
2018-05-12T13:49:20.985Z,990.42
2018-05-12T13:50:31.022Z,990.41
2018-05-12T13:51:40.773Z,990.4
2018-05-12T13:52:50.258Z,990.41
2018-05-12T13:54:00.272Z,990.4
2018-05-12T13:55:10.032Z,990.47
2018-05-12T13:56:19.796Z,990.46
2018-05-12T13:57:29.823Z,990.44
2018-05-12T13:58:39.851Z,990.44
2018-05-12T13:59:49.872Z,990.44
2018-05-12T14:00:59.988Z,990.56
2018-05-12T14:02:09.757Z,990.41
2018-05-12T14:03:18.983Z,990.37
2018-05-12T14:04:28.474Z,990.4
2018-05-12T14:05:38.491Z,990.38
2018-05-12T14:06:48.514Z,990.38
2018-05-12T14:07:58.264Z,990.35
2018-05-12T14:09:07.485Z,990.34
2018-05-12T14:10:17.504Z,990.36
2018-05-12T14:11:27.526Z,990.35
2018-05-12T14:12:37.008Z,990.31
2018-05-12T14:13:46.489Z,990.89
2018-05-12T14:14:56.516Z,990.44
2018-05-12T14:16:06.652Z,991
2018-05-12T14:17:17.007Z,990.96
2018-05-12T14:18:27.026Z,990.39
2018-05-12T14:19:36.773Z,990.66
2018-05-12T14:20:46.533Z,990.4
2018-05-12T14:21:56.554Z,990.31
2018-05-12T14:23:06.322Z,990.42
2018-05-12T14:24:16.393Z,990.32
2018-05-12T14:25:26.147Z,990.31
2018-05-12T14:26:35.902Z,990.29
2018-05-12T14:27:45.925Z,990.28
2018-05-12T14:28:55.945Z,990.31
2018-05-12T14:30:05.695Z,990.35
2018-05-12T14:31:15.457Z,990.4
2018-05-12T14:32:24.953Z,990.42
2018-05-12T14:33:35.006Z,990.49
2018-05-12T14:34:44.771Z,990.5
2018-05-12T14:35:54.808Z,990.62
2018-05-12T14:37:04.840Z,990.49